Latest Coastal Weather Observations for Wilsons Promontory

IDV60701

Issued at 2:22 pm EST Sunday 26 June 2022 (issued every 10 minutes, with the page automatically refreshed every 10 minutes)

About coastal observations | Map of coastal stations | Coastal observations for VIC | Marine services | Other Formats
Station Details ID: 085096 Name: WILSONS PROMONTORY LIGHTHOUSE Lat: -39.13 Lon: 146.42 Height: 95.0 m
Data from the previous 72 hours. | See also: Recent months at Wilsons Promontory
Date/Time
EST
Wind Sea
Height
m
Swell Vis
km
Cloud Weather Temp
°C
Press
MSL
hPa
Rain since
9am
mm
Dir  Spd
kts
Gust
kts
Height
m
Period
s
Dir
26/02:07pm W 17 27 - - - - - - - 11.3 1020.6 0.0
26/02:00pm WSW 20 26 - - - - - - - 11.4 1020.4 0.0
26/01:30pm W 24 30 - - - - - - - 11.7 1020.4 0.0
26/01:19pm W 21 31 - - - - - - - 11.7 1020.6 0.0
26/01:00pm W 20 27 - - - - - - - 11.6 1020.5 0.0
26/12:40pm W 20 30 - - - - - - - 11.6 1020.6 0.0
26/12:30pm W 18 25 - - - - - - - 11.7 1020.6 0.0
26/12:00pm W 20 26 - - - - - - - 11.8 1020.7 0.0
26/11:30am W 19 25 - - - - - - - 12.0 1020.6 0.0
26/11:00am W 21 26 - - - - - - - 11.6 1020.7 0.0
26/10:30am W 21 28 - - - - - - - 11.4 1020.6 0.0
26/10:00am W 21 29 - - - - - - - 11.4 1020.3 0.0
26/09:31am WSW 20 30 - - - - - - - 11.2 1020.0 0.0
26/09:30am WSW 21 30 - - - - - - - 11.2 1020.0 0.0
26/09:06am W 19 29 - - - - - - - 11.0 1019.8 0.0
26/09:00am W 18 26 - - - - - - Recent precip. 11.0 1019.9 8.0
26/08:30am W 16 23 - - - - - - - 10.1 1019.8 7.8
26/08:09am W 18 28 - - - - - - - 10.4 1019.6 7.6
26/08:00am W 20 27 - - - - - - - 10.2 1019.5 7.4
26/07:32am W 20 31 - - - - - - - 10.2 1019.1 7.2
26/07:30am W 20 29 - - - - - - - 10.2 1019.1 7.0
26/07:09am W 20 30 - - - - - - - 10.2 1018.6 6.2
26/07:00am W 19 27 - - - - - - - 10.1 1018.4 5.8
26/06:30am W 19 29 - - - - - - - 10.1 1018.3 3.8
26/06:00am W 24 39 - - - - - - Recent precip. 11.2 1016.9 0.4
26/05:30am WNW 26 40 - - - - - - - 11.6 1016.8 0.0
26/05:00am WNW 27 45 - - - - - - - 11.8 1015.7 0.0
26/04:30am WNW 27 47 - - - - - - - 11.8 1015.6 0.0
26/04:00am W 26 45 - - - - - - - 12.1 1015.5 0.0
26/03:30am WNW 30 46 - - - - - - - 12.1 1015.2 0.0
26/03:00am WNW 31 52 - - - - - - - 12.3 1015.3 0.0
26/02:30am WNW 31 48 - - - - - - - 12.4 1015.6 0.0
26/02:00am WNW 31 52 - - - - - - - 12.2 1015.0 0.0
26/01:48am WNW 31 51 - - - - - - - 12.2 1015.0 0.0
26/01:44am WNW 25 50 - - - - - - - 12.1 - 0.0
26/01:43am WNW 29 50 - - - - - - - 12.2 1015.4 0.0
26/01:41am WNW 29 50 - - - - - - - 12.2 1014.9 0.0
26/01:30am WNW 25 45 - - - - - - - 12.1 1015.0 0.0
26/01:00am WNW 22 43 - - - - - - - 12.1 1015.8 0.0
26/12:30am WNW 23 43 - - - - - - - 12.4 1015.4 0.0
26/12:19am WNW 24 44 - - - - - - - 12.4 1015.2 0.0
26/12:17am WNW 24 43 - - - - - - - 12.4 1015.8 0.0
26/12:15am WNW 25 43 - - - - - - - 12.4 1015.2 0.0
26/12:00am W 21 39 - - - - - - - 12.4 1015.7 0.0
 
Date/Time
EST
Wind Sea
Height
m
Swell Vis
km
Cloud Weather Temp
°C
Press
MSL
hPa
Rain since
9am
mm
Dir  Spd
kts
Gust
kts
Height
m
Period
s
Dir
25/11:42pm WNW 16 37 - - - - - - - 12.2 1015.6 0.0
25/11:30pm WNW 10 23 - - - - - - - 12.0 1016.0 0.0
25/11:01pm W 15 31 - - - - - - - 12.3 1015.8 0.0
25/11:00pm WNW 14 31 - - - - - - - 12.3 1016.1 0.0
25/10:30pm W 16 38 - - - - - - - 12.5 1016.0 0.0
25/10:09pm W 13 34 - - - - - - - 12.4 1015.8 0.0
25/10:00pm WNW 12 23 - - - - - - - 12.4 1016.1 0.0
25/09:41pm WNW 16 37 - - - - - - - 12.5 - 0.0
25/09:38pm WNW 14 29 - - - - - - - 12.5 1016.0 0.0
25/09:30pm WNW 13 33 - - - - - - - 12.4 1015.9 0.0
25/09:25pm W 13 33 - - - - - - - 12.5 1015.7 0.0
25/09:00pm NW 11 28 - - - - - - - 12.3 1016.2 0.0
25/08:30pm E 6 15 - - - - - - - 12.3 1016.2 0.0
25/08:00pm NNW 10 24 - - - - - - - 12.5 1016.4 0.0
25/07:30pm NNW 8 18 - - - - - - - 12.6 1016.5 0.0
25/07:00pm NNW 10 25 - - - - - - - 12.9 1016.1 0.0
25/06:43pm NNW 11 32 - - - - - - - 12.9 1016.0 0.0
25/06:30pm NNW 7 25 - - - - - - - 12.7 1016.0 0.0
25/06:00pm WNW 11 32 - - - - - - - 12.7 1015.7 0.0
25/05:54pm W 15 32 - - - - - - - 12.8 - 0.0
25/05:53pm WNW 12 32 - - - - - - - 12.8 1015.1 0.0
25/05:30pm WNW 11 25 - - - - - - - 12.9 1015.6 0.0
25/05:00pm WNW 9 21 - - - - - - - 12.8 1015.6 0.0
25/04:30pm W 13 31 - - - - - - - 12.9 1015.3 0.0
25/04:00pm WNW 17 40 - - - - - - - 12.9 1015.2 0.0
25/03:30pm W 18 34 - - - - - - - 12.8 1015.2 0.0
25/03:00pm WNW 22 38 - - - - - - - 12.9 1014.8 0.0
25/02:30pm WNW 21 41 - - - - - - - 12.7 1014.7 0.0
25/02:00pm WNW 25 48 - - - - - - - 12.8 1014.8 0.0
25/01:30pm W 22 41 - - - - - - - 12.8 1015.0 0.0
25/01:00pm W 25 41 - - - - - - - 12.7 1014.6 0.0
25/12:37pm W 15 33 - - - - - - - 12.6 - 0.0
25/12:30pm WNW 14 33 - - - - - - - 12.6 1015.1 0.0
25/12:01pm WNW 17 41 - - - - - - - 12.3 1015.3 0.0
25/12:00pm WNW 17 42 - - - - - - - 12.3 1015.6 0.0
25/11:30am WNW 25 44 - - - - - - - 12.0 1015.3 0.0
25/11:00am WNW 22 36 - - - - - - - 11.9 1015.8 0.0
25/10:30am WNW 21 34 - - - - - - - 11.8 1015.9 0.0
25/10:00am WNW 21 36 - - - - - - - 11.5 1016.0 0.0
25/09:30am WNW 19 38 - - - - - - - 11.4 1015.7 0.0
25/09:00am WNW 16 31 - - - - - - - 11.3 1015.9 3.6
25/08:30am WNW 18 37 - - - - - - - 11.1 1015.6 3.6
25/08:19am W 17 37 - - - - - - - 11.1 1015.2 3.6
25/08:15am WNW 15 27 - - - - - - - 11.1 1015.2 3.6
25/08:00am W 13 24 - - - - - - - 11.0 1015.4 3.6
25/07:30am WNW 18 33 - - - - - - - 10.8 1015.1 3.6
25/07:00am WNW 19 35 - - - - - - - 10.7 1014.8 3.6
25/06:46am WNW 17 36 - - - - - - - 10.7 1014.5 3.6
25/06:45am WNW 17 35 - - - - - - - 10.7 1014.7 3.6
25/06:42am WNW 16 39 - - - - - - - 10.6 1014.8 3.6
25/06:40am WNW 17 39 - - - - - - - 10.6 1014.6 3.6
25/06:38am NNW 16 39 - - - - - - - 10.6 - 3.6
25/06:30am WNW 20 40 - - - - - - - 10.7 1014.5 3.6
25/06:00am WNW 18 35 - - - - - - - 10.5 1014.1 3.6
25/05:30am WNW 20 37 - - - - - - - 10.5 1013.8 3.6
25/05:00am WNW 19 38 - - - - - - - 10.5 1013.6 3.6
25/04:46am WNW 16 32 - - - - - - - 10.5 - 3.6
25/04:43am W 13 32 - - - - - - - 10.5 1013.5 3.6
25/04:30am WNW 13 28 - - - - - - - 10.4 1013.7 3.6
25/04:00am WNW 15 27 - - - - - - - 10.4 1013.9 3.6
25/03:55am W 15 25 - - - - - - - 10.4 1013.6 3.6
25/03:30am WNW 14 29 - - - - - - - 10.4 1014.0 3.6
25/03:00am WNW 15 31 - - - - - - - 10.6 1014.1 3.6
25/02:57am WNW 15 31 - - - - - - - 10.5 - 3.6
25/02:30am W 12 27 - - - - - - - 10.5 1013.9 3.6
25/02:00am WNW 13 20 - - - - - - - 10.5 1014.2 3.6
25/01:30am NW 15 32 - - - - - - - 10.7 1014.2 3.6
25/01:00am WNW 11 22 - - - - - - - 11.2 1014.4 3.6
25/12:30am W 15 24 - - - - - - - 11.2 1014.4 3.6
25/12:00am W 19 25 - - - - - - Recent precip. 11.0 1014.6 3.6
 
Date/Time
EST
Wind Sea
Height
m
Swell Vis
km
Cloud Weather Temp
°C
Press
MSL
hPa
Rain since
9am
mm
Dir  Spd
kts
Gust
kts
Height
m
Period
s
Dir
24/11:48pm W 19 30 - - - - - - - 11.0 1014.4 3.6
24/11:30pm W 19 27 - - - - - - - 12.0 1014.5 3.0
24/11:02pm W 15 25 - - - - - - - 11.8 - 3.0
24/11:00pm W 15 25 - - - - - - - 11.8 1014.6 3.0
24/10:59pm W 15 25 - - - - - - - 11.8 1014.5 3.0
24/10:30pm W 18 27 - - - - - - - 11.8 1014.5 3.0
24/10:03pm W 22 32 - - - - - - - 11.7 1014.4 3.0
24/10:00pm W 23 32 - - - - - - - 11.7 1014.5 3.0
24/09:31pm W 21 31 - - - - - - - 11.6 1014.5 3.0
24/09:30pm W 22 31 - - - - - - - 11.7 1014.4 3.0
24/09:00pm W 23 36 - - - - - - - 11.7 1014.3 3.0
24/08:30pm W 21 32 - - - - - - - 11.6 1014.1 3.0
24/08:07pm W 20 30 - - - - - - - 11.6 1014.2 3.0
24/08:00pm W 21 29 - - - - - - - 11.6 1014.2 3.0
24/07:30pm W 19 30 - - - - - - - 11.3 1014.3 3.0
24/07:00pm W 15 28 - - - - - - - 11.2 1013.8 3.0
24/06:40pm W 21 31 - - - - - - - 11.4 1013.3 3.0
24/06:30pm W 20 28 - - - - - - - 11.3 1013.4 3.0
24/06:18pm W 19 29 - - - - - - - 11.3 1013.3 3.0
24/06:00pm W 19 27 - - - - - - - 11.1 1013.3 3.0
24/05:35pm W 22 32 - - - - - - - 11.1 1013.0 3.0
24/05:30pm W 23 30 - - - - - - - 11.1 1012.9 3.0
24/05:00pm W 17 28 - - - - - - - 11.1 1012.8 3.0
24/04:33pm W 19 30 - - - - - - - 11.0 1012.4 3.0
24/04:30pm W 17 24 - - - - - - - 11.1 1012.5 3.0
24/04:00pm W 21 31 - - - - - - - 11.0 1012.3 2.8
24/03:30pm W 26 37 - - - - - - - 11.5 1011.6 2.8
24/03:00pm W 24 34 - - - - - - - 12.2 1011.5 2.8
24/02:30pm W 21 35 - - - - - - - 12.2 1011.3 2.8
24/02:00pm W 23 34 - - - - - - - 12.2 1011.4 2.8
24/01:30pm W 23 35 - - - - - - - 12.3 1011.4 2.8
24/01:07pm W 21 31 - - - - - - - 12.3 1011.3 2.8
24/01:00pm W 22 31 - - - - - - - 12.3 1011.2 2.8
24/12:36pm W 21 32 - - - - - - - 12.1 1011.4 2.8
24/12:30pm W 23 31 - - - - - - - 12.1 1011.2 2.8
24/12:03pm W 22 32 - - - - - - - 11.9 1011.3 2.8
24/12:02pm W 22 32 - - - - - - - 12.0 - 2.8
24/12:00pm W 22 31 - - - - - - Recent precip. 11.9 1011.4 2.8
24/11:30am W 29 41 - - - - - - - 11.0 1011.3 2.8
24/11:21am W 27 40 - - - - - - - 11.4 1011.3 2.8
24/11:18am W 26 40 - - - - - - - 11.7 1010.9 2.4
24/11:00am W 20 30 - - - - - - - 12.3 1011.4 2.2
24/10:30am W 24 35 - - - - - - - 12.0 1011.3 2.2
24/10:00am W 22 36 - - - - - - - 12.0 1011.0 1.2
24/09:30am W 24 37 - - - - - - - 12.5 1010.4 0.0
24/09:00am W 24 36 - - - - - - Recent precip. 11.7 1010.3 3.6
24/08:30am W 24 36 - - - - - - - 11.8 1010.3 3.6
24/08:00am W 22 40 - - - - - - - 11.8 1010.1 3.4
24/07:30am WNW 25 39 - - - - - - - 12.3 1009.3 3.2
24/07:00am WNW 28 42 - - - - - - - 12.2 1008.5 3.2
24/06:30am WNW 26 43 - - - - - - - 12.4 1008.4 3.2
24/06:19am WNW 27 51 - - - - - - - 12.4 1007.8 3.2
24/06:00am WNW 24 40 - - - - - - - 12.3 1008.4 3.2
24/05:55am WNW 25 43 - - - - - - - 12.3 1008.6 3.2
24/05:48am W 22 42 - - - - - - - 12.3 1008.0 3.2
24/05:30am WNW 20 37 - - - - - - - 12.3 1008.5 3.2
24/05:00am WNW 22 40 - - - - - - - 12.7 1008.3 3.2
24/04:58am WNW 22 40 - - - - - - - 12.6 - 3.2
24/04:30am W 27 39 - - - - - - - 12.3 1008.3 3.0
24/04:00am W 25 47 - - - - - - - 13.2 1008.1 1.8
24/03:30am W 20 38 - - - - - - - 13.8 1008.3 1.6
24/03:00am W 21 40 - - - - - - - 14.1 1007.9 1.4
24/02:57am W 23 47 - - - - - - - 14.2 1007.8 1.4
24/02:46am WNW 24 44 - - - - - - - 14.3 1007.7 1.4
24/02:30am WNW 20 42 - - - - - - - 14.6 1007.7 1.4
24/02:28am WNW 18 40 - - - - - - - 14.5 1007.7 1.4
24/02:27am W 24 40 - - - - - - - 14.5 - 1.4
24/02:00am NW 13 45 - - - - - - - 14.4 1008.2 1.4
24/01:57am NW 13 45 - - - - - - - 14.5 1007.8 1.4
24/01:45am NW 16 35 - - - - - - - 14.6 - 1.4
24/01:30am N 13 33 - - - - - - - 14.6 1008.2 1.4
24/01:02am NNW 19 47 - - - - - - - 14.8 1008.0 1.4
24/01:00am NNW 19 36 - - - - - - - 14.7 1008.3 1.4
24/12:30am NNW 18 41 - - - - - - - 14.5 1008.7 1.4
24/12:00am NNW 19 44 - - - - - - - 14.2 1009.2 1.4
 
Date/Time
EST
Wind Sea
Height
m
Swell Vis
km
Cloud Weather Temp
°C
Press
MSL
hPa
Rain since
9am
mm
Dir  Spd
kts
Gust
kts
Height
m
Period
s
Dir
23/11:57pm NNW 19 44 - - - - - - - 14.3 1008.9 1.4
23/11:30pm NW 14 31 - - - - - - - 14.2 1009.5 1.4
23/11:03pm NNW 15 35 - - - - - - - 14.2 - 1.4
23/11:02pm NW 15 34 - - - - - - - 14.2 1009.8 1.4
23/11:00pm NW 13 34 - - - - - - - 14.1 1010.0 1.4
23/10:50pm NW 18 36 - - - - - - - 14.2 1009.7 1.4
23/10:30pm NNW 17 35 - - - - - - - 14.3 1010.3 1.4
23/10:02pm NW 15 37 - - - - - - - 14.5 - 1.4
23/10:01pm NW 15 37 - - - - - - - 14.4 1010.3 1.4
23/10:00pm NW 14 35 - - - - - - - 14.4 1010.5 1.4
23/09:34pm NNW 15 32 - - - - - - - 14.2 1010.8 1.4
23/09:30pm NNW 13 29 - - - - - - - 14.1 1011.1 1.4
23/09:27pm NNW 15 33 - - - - - - - 14.2 1011.0 1.4
23/09:00pm NNW 14 33 - - - - - - - 14.1 1011.4 1.4
23/08:30pm NNW 15 30 - - - - - - - 13.9 1011.6 1.4
23/08:03pm NNW 15 30 - - - - - - - 13.7 1011.9 1.4
23/08:00pm NW 13 30 - - - - - - - 13.7 1012.1 1.4
23/07:58pm NW 15 30 - - - - - - - 13.8 1012.0 1.4
23/07:54pm NNW 16 30 - - - - - - - 13.7 - 1.4
23/07:30pm NNW 12 35 - - - - - - - 13.7 1012.3 1.4
23/07:05pm N 12 31 - - - - - - - 13.6 1012.4 1.4
23/07:00pm NNW 14 29 - - - - - - - 13.7 1012.4 1.4
23/06:38pm NNW 15 35 - - - - - - - 13.6 1012.5 1.4
23/06:30pm NW 11 25 - - - - - - - 13.6 1012.7 1.4
23/06:00pm NNW 14 32 - - - - - - - 13.6 1012.7 1.4
23/05:58pm NNW 15 32 - - - - - - - 13.7 1012.6 1.4
23/05:30pm NW 11 26 - - - - - - - 13.7 1013.1 1.4
23/05:00pm NNW 11 19 - - - - - - - 13.9 1013.2 1.4
23/04:30pm NNW 9 25 - - - - - - - 13.8 1013.4 1.4
23/04:07pm NW 11 36 - - - - - - - 14.0 1013.5 1.4
23/04:00pm NNW 12 24 - - - - - - - 14.0 1013.7 1.4
23/03:30pm NW 11 24 - - - - - - - 14.1 1013.8 1.4
23/03:00pm NNW 13 31 - - - - - - - 14.1 1014.0 1.4
23/02:34pm NNW 15 26 - - - - - - - 14.4 1014.0 1.4
23/02:30pm NNW 13 28 - - - - - - - 14.3 1014.0 1.4

Other formats

Comma delimited format used in spreadsheet applications
http://www.bom.gov.au/fwo/IDV60701/IDV60701.94893.axf

JavaScript Object Notation format (JSON) in row-major order
http://www.bom.gov.au/fwo/IDV60701/IDV60701.94893.json

Data quality

Most of these data are generated automatically and are frequently updated. Quality checks on data are not normally performed. It is possible for incorrect values to appear. Refer to information at About Latest Weather Observations and please check the disclaimer before using these data.